Time;durP1;ratioP1;P1;durP2;ratioP2;P2;SDS_P1;SDS_P2;PMS_P1;PMS_P2;Temp;Humidity;BMP_temperature;BMP_pressure;BME280_temperature;BME280_humidity;BME280_pressure;Samples;Min_cycle;Max_cycle;Signal;HPM_P1;HPM_P2
2022/08/31 00:05:39;;;;;;;15.40;5.00;;;21.90;60.10;;;;;;5114117;27;20464;-74
2022/08/31 00:08:07;;;;;;;9.33;3.73;;;21.90;60.10;;;;;;5100669;28;20513;-74
2022/08/31 00:10:39;;;;;;;7.77;3.97;;;21.90;60.20;;;;;;5097526;28;20541;-74
2022/08/31 00:13:10;;;;;;;6.13;3.20;;;21.90;60.30;;;;;;5096123;28;20476;-74
2022/08/31 00:15:38;;;;;;;9.00;3.27;;;21.90;60.30;;;;;;5102249;28;20460;-74
2022/08/31 00:18:06;;;;;;;8.53;3.30;;;21.90;60.30;;;;;;5099067;28;20472;-74
2022/08/31 00:20:35;;;;;;;6.60;3.90;;;21.90;60.40;;;;;;5099034;28;20448;-74
2022/08/31 00:23:07;;;;;;;7.07;3.70;;;21.90;60.50;;;;;;5096582;28;21018;-74
2022/08/31 00:25:35;;;;;;;6.40;3.80;;;22.00;60.50;;;;;;5095829;28;20541;-74
2022/08/31 00:28:04;;;;;;;6.40;3.30;;;22.00;60.60;;;;;;5096344;28;20480;-74
2022/08/31 00:30:34;;;;;;;6.50;3.40;;;22.00;60.60;;;;;;5110642;27;20514;-74
2022/08/31 00:33:02;;;;;;;6.53;3.00;;;22.00;60.60;;;;;;5102234;28;21034;-74
2022/08/31 00:35:34;;;;;;;6.67;3.60;;;22.00;60.70;;;;;;5104775;27;20458;-74
2022/08/31 00:38:04;;;;;;;7.00;3.90;;;22.00;60.70;;;;;;5096688;28;21395;-74
2022/08/31 00:40:40;;;;;;;7.87;3.33;;;22.00;60.80;;;;;;5094887;28;20482;-75
2022/08/31 00:43:13;;;;;;;11.20;3.93;;;22.00;60.90;;;;;;5094529;28;20521;-74
2022/08/31 00:45:41;;;;;;;7.43;3.63;;;22.00;60.90;;;;;;5096434;28;20625;-74
2022/08/31 00:48:09;;;;;;;6.43;3.50;;;22.00;60.90;;;;;;5095557;28;20469;-73
2022/08/31 00:50:37;;;;;;;8.37;3.53;;;22.00;60.90;;;;;;5096268;28;21061;-73
2022/08/31 00:53:06;;;;;;;8.17;3.67;;;22.00;61.00;;;;;;5098958;28;20465;-74
2022/08/31 00:55:36;;;;;;;7.90;4.10;;;22.00;61.00;;;;;;5095814;28;20447;-73
2022/08/31 00:58:08;;;;;;;9.73;4.30;;;22.00;61.10;;;;;;5102596;28;20480;-73
2022/08/31 01:00:39;;;;;;;8.20;4.53;;;22.00;61.00;;;;;;5092925;28;20856;-72
2022/08/31 01:03:08;;;;;;;7.50;3.80;;;21.90;61.00;;;;;;5093904;28;20552;-73
2022/08/31 01:05:37;;;;;;;8.23;3.90;;;21.80;61.00;;;;;;5096627;28;20472;-73
2022/08/31 01:08:07;;;;;;;7.83;4.00;;;21.80;61.10;;;;;;5097053;28;20602;-73
2022/08/31 01:10:38;;;;;;;9.23;4.13;;;21.70;61.20;;;;;;5098296;28;20445;-73
2022/08/31 01:13:07;;;;;;;7.37;3.03;;;21.70;61.30;;;;;;5093649;28;20487;-73
2022/08/31 01:15:37;;;;;;;7.83;4.00;;;21.70;61.40;;;;;;5099565;28;20453;-73
2022/08/31 01:18:07;;;;;;;7.47;4.00;;;21.70;61.50;;;;;;5101311;28;20906;-74
2022/08/31 01:20:45;;;;;;;6.10;3.40;;;21.60;61.50;;;;;;5094694;28;20466;-75
2022/08/31 01:23:22;;;;;;;7.90;3.90;;;21.60;61.50;;;;;;5112021;28;20454;-74
2022/08/31 01:25:53;;;;;;;7.07;3.87;;;21.60;61.70;;;;;;5096792;28;20454;-73
2022/08/31 01:28:21;;;;;;;10.30;4.53;;;21.70;61.70;;;;;;5099429;28;20926;-73
2022/08/31 01:31:06;;;;;;;6.63;3.40;;;21.70;61.70;;;;;;5096843;28;21063;-73
2022/08/31 01:33:37;;;;;;;8.47;4.17;;;21.80;61.80;;;;;;5104932;28;20486;-73
2022/08/31 01:36:07;;;;;;;10.50;4.17;;;21.80;61.80;;;;;;5102497;28;20504;-73
2022/08/31 01:38:37;;;;;;;9.70;4.60;;;21.80;61.70;;;;;;5102155;28;20960;-74
2022/08/31 01:41:07;;;;;;;10.13;3.90;;;21.80;61.70;;;;;;5102609;28;20455;-73
2022/08/31 01:43:36;;;;;;;10.47;4.53;;;21.70;61.70;;;;;;5100229;28;20456;-74
2022/08/31 01:46:07;;;;;;;7.30;3.70;;;21.70;61.70;;;;;;5092718;28;20820;-73
2022/08/31 01:48:39;;;;;;;7.60;3.83;;;21.70;61.80;;;;;;5103021;28;20457;-73
2022/08/31 01:51:10;;;;;;;10.13;4.73;;;21.70;61.80;;;;;;5096631;28;20454;-73
2022/08/31 01:53:44;;;;;;;6.47;3.60;;;21.70;61.90;;;;;;5115673;27;20463;-73
2022/08/31 01:56:19;;;;;;;7.43;3.80;;;21.70;61.80;;;;;;5104977;28;20978;-73
2022/08/31 01:58:47;;;;;;;7.10;4.37;;;21.60;61.90;;;;;;5103554;28;20447;-75
2022/08/31 02:01:38;;;;;;;7.17;4.00;;;21.60;62.00;;;;;;5103483;28;20564;-75
2022/08/31 02:04:08;;;;;;;10.13;4.57;;;21.60;62.20;;;;;;5103631;27;20459;-73
2022/08/31 02:06:37;;;;;;;10.27;4.30;;;21.60;62.30;;;;;;5106250;28;20504;-75
2022/08/31 02:09:07;;;;;;;8.17;4.57;;;21.60;62.40;;;;;;5105500;27;20460;-74
2022/08/31 02:11:36;;;;;;;7.60;4.87;;;21.60;62.30;;;;;;5105013;28;20461;-74
2022/08/31 02:14:08;;;;;;;7.57;4.40;;;21.70;62.40;;;;;;5102392;28;20454;-74
2022/08/31 02:16:44;;;;;;;7.00;4.33;;;21.70;62.40;;;;;;5101161;28;20512;-74
2022/08/31 02:19:12;;;;;;;7.90;3.93;;;21.70;62.50;;;;;;5101281;28;20458;-74
2022/08/31 02:21:40;;;;;;;10.40;4.70;;;21.70;62.50;;;;;;5098114;28;20905;-74
2022/08/31 02:24:11;;;;;;;7.77;4.17;;;21.70;62.50;;;;;;5096179;28;20453;-74
2022/08/31 02:26:39;;;;;;;6.87;4.03;;;21.70;62.60;;;;;;5106397;28;20541;-74
2022/08/31 02:29:07;;;;;;;7.53;4.27;;;21.70;62.60;;;;;;5096486;28;20518;-73
2022/08/31 02:31:36;;;;;;;11.00;4.83;;;21.70;62.70;;;;;;5097642;28;20478;-72
2022/08/31 02:34:05;;;;;;;7.60;4.13;;;21.70;62.70;;;;;;5112488;27;20493;-73
2022/08/31 02:36:33;;;;;;;9.90;4.60;;;21.70;62.70;;;;;;5100144;28;20609;-73
2022/08/31 02:39:05;;;;;;;9.30;4.80;;;21.70;62.80;;;;;;5104296;28;20446;-72
2022/08/31 02:41:35;;;;;;;8.63;4.60;;;21.60;62.80;;;;;;5102570;28;20450;-74
2022/08/31 02:44:04;;;;;;;7.00;4.03;;;21.60;62.80;;;;;;5096553;28;20475;-73
2022/08/31 02:46:33;;;;;;;7.40;4.23;;;21.60;63.00;;;;;;5099998;28;20562;-73
2022/08/31 02:49:21;;;;;;;8.03;4.93;;;21.60;63.10;;;;;;5104780;28;20505;-73
2022/08/31 02:51:51;;;;;;;8.53;4.10;;;21.50;63.10;;;;;;5099740;28;20457;-73
2022/08/31 02:54:19;;;;;;;9.07;4.47;;;21.50;63.20;;;;;;5100334;28;20442;-73
2022/08/31 02:56:48;;;;;;;8.83;4.97;;;21.50;63.30;;;;;;5103438;28;20554;-73
2022/08/31 02:59:19;;;;;;;8.30;4.57;;;21.50;63.30;;;;;;5101770;28;20559;-73
2022/08/31 03:01:48;;;;;;;8.43;4.87;;;21.50;63.40;;;;;;5094568;28;20452;-73
2022/08/31 03:04:17;;;;;;;8.10;4.67;;;21.50;63.40;;;;;;5111663;27;20474;-73
2022/08/31 03:06:46;;;;;;;7.20;4.20;;;21.50;63.40;;;;;;5098589;28;20483;-73
2022/08/31 03:09:15;;;;;;;9.80;4.97;;;21.40;63.40;;;;;;5105146;28;20521;-74
2022/08/31 03:11:43;;;;;;;8.73;4.43;;;21.40;63.50;;;;;;5101243;28;20532;-74
2022/08/31 03:14:13;;;;;;;6.57;4.30;;;21.40;63.50;;;;;;5101043;28;21379;-73
2022/08/31 03:16:41;;;;;;;8.00;4.47;;;21.40;63.60;;;;;;5105032;28;20476;-74
2022/08/31 03:19:09;;;;;;;13.67;4.40;;;21.40;63.70;;;;;;5112537;27;20947;-73
2022/08/31 03:21:37;;;;;;;8.87;3.90;;;21.30;63.70;;;;;;5104085;28;20838;-75
2022/08/31 03:24:05;;;;;;;11.70;5.00;;;21.30;63.80;;;;;;5104612;28;20536;-73
2022/08/31 03:26:33;;;;;;;8.70;4.20;;;21.30;63.90;;;;;;5110848;27;20530;-74
2022/08/31 03:29:01;;;;;;;8.83;5.13;;;21.30;63.90;;;;;;5101084;28;20540;-73
2022/08/31 03:31:53;;;;;;;9.73;5.00;;;21.30;64.00;;;;;;5100566;28;20456;-74
2022/08/31 03:34:22;;;;;;;8.80;4.80;;;21.30;64.00;;;;;;5116838;27;20999;-74
2022/08/31 03:36:50;;;;;;;8.57;4.50;;;21.30;64.00;;;;;;5102319;28;20563;-73
2022/08/31 03:39:18;;;;;;;9.97;5.10;;;21.30;64.10;;;;;;5102882;27;21135;-73
2022/08/31 03:41:47;;;;;;;10.10;5.30;;;21.20;64.10;;;;;;5102008;27;20534;-73
2022/08/31 03:44:22;;;;;;;9.83;4.33;;;21.20;64.30;;;;;;5101148;28;20462;-74
2022/08/31 03:46:54;;;;;;;8.83;5.30;;;21.10;64.40;;;;;;5100188;28;20567;-73
2022/08/31 03:49:23;;;;;;;7.20;4.80;;;21.10;64.50;;;;;;5103962;27;20471;-75
2022/08/31 03:52:13;;;;;;;8.17;4.90;;;21.10;64.60;;;;;;5104110;27;20472;-73
2022/08/31 03:54:48;;;;;;;8.40;4.57;;;21.10;64.70;;;;;;5095540;28;20538;-75
2022/08/31 03:57:16;;;;;;;7.20;4.53;;;21.10;64.80;;;;;;5104534;28;20921;-74
2022/08/31 03:59:44;;;;;;;9.70;5.40;;;21.20;64.90;;;;;;5101570;28;21486;-75
2022/08/31 04:02:19;;;;;;;7.20;4.40;;;21.20;64.90;;;;;;5095585;28;20438;-73
2022/08/31 04:05:16;;;;;;;10.23;5.20;;;21.20;65.00;;;;;;5089827;28;20514;-72
2022/08/31 04:08:03;;;;;;;7.10;4.40;;;21.20;65.00;;;;;;5098336;28;20475;-72
2022/08/31 04:10:52;;;;;;;8.67;5.33;;;21.30;65.10;;;;;;5097644;28;21201;-73
2022/08/31 04:13:41;;;;;;;8.93;5.37;;;21.30;65.10;;;;;;5100627;28;20467;-75
2022/08/31 04:16:36;;;;;;;8.40;5.07;;;21.30;65.10;;;;;;5098073;28;20489;-73
2022/08/31 04:19:24;;;;;;;7.57;5.13;;;21.30;65.10;;;;;;5101092;27;20475;-74
2022/08/31 04:22:00;;;;;;;8.23;5.47;;;21.30;65.20;;;;;;5097014;28;20451;-73
2022/08/31 04:24:34;;;;;;;8.30;5.30;;;21.30;65.20;;;;;;5101630;28;20852;-74
2022/08/31 04:27:02;;;;;;;9.63;4.67;;;21.30;65.20;;;;;;5096523;28;20467;-74
2022/08/31 04:29:31;;;;;;;8.33;5.40;;;21.30;65.30;;;;;;5096707;28;20454;-74
2022/08/31 04:31:59;;;;;;;10.00;5.30;;;21.30;65.40;;;;;;5091665;28;20499;-73
2022/08/31 04:34:28;;;;;;;9.37;4.97;;;21.30;65.40;;;;;;5102897;28;20468;-74
2022/08/31 04:36:56;;;;;;;7.80;5.13;;;21.30;65.50;;;;;;5098105;28;20580;-73
2022/08/31 04:39:25;;;;;;;7.60;4.63;;;21.30;65.50;;;;;;5102616;28;20513;-74
2022/08/31 04:41:59;;;;;;;10.33;6.13;;;21.30;65.50;;;;;;5099942;28;20555;-74
2022/08/31 04:44:29;;;;;;;8.47;5.90;;;21.30;65.60;;;;;;5103184;28;20464;-73
2022/08/31 04:46:58;;;;;;;10.30;6.13;;;21.30;65.60;;;;;;5097965;28;20491;-74
2022/08/31 04:49:28;;;;;;;9.80;5.63;;;21.30;65.60;;;;;;5100129;28;20471;-74
2022/08/31 04:51:56;;;;;;;9.90;5.00;;;21.30;65.70;;;;;;5112510;27;20494;-74
2022/08/31 04:54:24;;;;;;;8.93;5.13;;;21.30;65.80;;;;;;5111190;27;20477;-74
2022/08/31 04:56:53;;;;;;;11.77;5.30;;;21.30;65.80;;;;;;5098242;28;20479;-73
2022/08/31 04:59:28;;;;;;;9.03;5.27;;;21.30;65.90;;;;;;5094066;28;20464;-73
2022/08/31 05:02:15;;;;;;;7.03;4.43;;;21.30;65.90;;;;;;5098036;28;20455;-73
2022/08/31 05:04:58;;;;;;;8.80;5.20;;;21.30;66.00;;;;;;5094008;28;21030;-73
2022/08/31 05:07:26;;;;;;;8.80;5.20;;;21.20;66.10;;;;;;5096400;28;20469;-73
2022/08/31 05:09:57;;;;;;;8.77;5.67;;;21.20;66.10;;;;;;5096509;28;20447;-74
2022/08/31 05:12:25;;;;;;;10.17;6.37;;;21.20;66.20;;;;;;5109510;28;20982;-73
2022/08/31 05:15:02;;;;;;;8.43;5.20;;;21.20;66.30;;;;;;5097386;28;20580;-73
2022/08/31 05:17:30;;;;;;;7.80;5.40;;;21.10;66.40;;;;;;5092230;28;20493;-73
2022/08/31 05:20:00;;;;;;;9.77;5.93;;;21.10;66.40;;;;;;5097130;28;20528;-73
2022/08/31 05:22:29;;;;;;;9.50;4.73;;;21.20;66.40;;;;;;5095519;28;20844;-74
2022/08/31 05:24:58;;;;;;;9.47;5.67;;;21.10;66.50;;;;;;5094766;28;20525;-74
2022/08/31 05:27:26;;;;;;;7.93;5.23;;;21.10;66.50;;;;;;5100701;28;20515;-74
2022/08/31 05:29:54;;;;;;;10.27;5.70;;;21.10;66.50;;;;;;5099809;28;20577;-75
2022/08/31 05:32:44;;;;;;;9.13;5.37;;;21.10;66.60;;;;;;5106197;28;20459;-73
2022/08/31 05:35:14;;;;;;;10.23;5.17;;;21.10;66.70;;;;;;5104847;28;20479;-73
2022/08/31 05:37:44;;;;;;;16.00;6.57;;;21.10;66.70;;;;;;5117699;27;20578;-73
2022/08/31 05:40:12;;;;;;;7.50;4.70;;;21.20;66.70;;;;;;5102051;28;20444;-73
2022/08/31 05:42:40;;;;;;;10.27;6.07;;;21.20;66.80;;;;;;5097416;28;20452;-73
2022/08/31 05:45:09;;;;;;;9.47;5.80;;;21.20;66.80;;;;;;5097895;28;20448;-73
2022/08/31 05:47:40;;;;;;;8.97;6.40;;;21.20;66.80;;;;;;5111310;27;20490;-73
2022/08/31 05:50:08;;;;;;;8.23;5.43;;;21.10;66.80;;;;;;5101149;28;20452;-73
2022/08/31 05:52:40;;;;;;;7.37;5.03;;;21.10;66.80;;;;;;5095803;28;20892;-73
2022/08/31 05:55:10;;;;;;;9.07;5.90;;;21.00;66.90;;;;;;5098313;28;20585;-73
2022/08/31 05:57:39;;;;;;;12.97;5.80;;;21.00;67.00;;;;;;5107150;28;20492;-73
2022/08/31 06:00:09;;;;;;;7.90;5.20;;;21.10;67.10;;;;;;5102644;28;20452;-72
2022/08/31 06:02:43;;;;;;;7.73;4.83;;;21.10;67.10;;;;;;5116026;27;20497;-73
2022/08/31 06:05:13;;;;;;;6.87;4.70;;;21.20;67.10;;;;;;5106075;27;20471;-73
2022/08/31 06:07:44;;;;;;;8.57;5.27;;;21.20;67.10;;;;;;5101565;28;20987;-72
2022/08/31 06:10:13;;;;;;;11.57;5.60;;;21.30;67.10;;;;;;5105888;27;20572;-75
2022/08/31 06:12:46;;;;;;;13.13;5.73;;;21.30;67.00;;;;;;5096824;28;20461;-75
2022/08/31 06:15:16;;;;;;;20.97;6.83;;;21.30;67.00;;;;;;5113208;27;20475;-73
2022/08/31 06:17:44;;;;;;;19.60;9.80;;;21.40;67.00;;;;;;5111237;27;20480;-72
2022/08/31 06:20:14;;;;;;;12.60;5.67;;;21.40;67.00;;;;;;5107954;28;20445;-73
2022/08/31 06:22:47;;;;;;;12.60;5.73;;;21.40;66.90;;;;;;5109166;28;20864;-73
2022/08/31 06:25:37;;;;;;;10.60;6.03;;;21.40;66.90;;;;;;5100892;28;20461;-73
2022/08/31 06:28:10;;;;;;;9.67;5.20;;;21.40;66.90;;;;;;5108556;28;20465;-73
2022/08/31 06:30:39;;;;;;;7.80;5.60;;;21.30;66.90;;;;;;5101389;28;20493;-73
2022/08/31 06:33:22;;;;;;;8.03;5.00;;;21.30;66.90;;;;;;5106175;28;20444;-73
2022/08/31 06:36:02;;;;;;;10.87;5.77;;;21.20;67.10;;;;;;5099142;27;21032;-73
2022/08/31 06:38:43;;;;;;;7.90;5.30;;;21.20;67.10;;;;;;5097320;28;20452;-73
2022/08/31 06:41:32;;;;;;;8.90;5.47;;;21.20;67.10;;;;;;5099829;28;20964;-73
2022/08/31 06:44:39;;;;;;;13.10;5.50;;;21.10;67.20;;;;;;5044101;28;21356;-73
2022/08/31 06:47:15;;;;;;;10.43;5.67;;;21.00;67.20;;;;;;5095161;28;20484;-74
2022/08/31 06:49:48;;;;;;;12.23;6.23;;;21.00;67.30;;;;;;5102834;28;20460;-73
2022/08/31 06:52:17;;;;;;;7.57;4.97;;;21.00;67.50;;;;;;5105030;28;20468;-73
2022/08/31 06:54:53;;;;;;;8.73;5.50;;;21.00;67.60;;;;;;5113928;27;20468;-74
2022/08/31 06:57:59;;;;;;;12.40;5.70;;;21.10;67.60;;;;;;5049544;28;20480;-73
2022/08/31 07:00:47;;;;;;;8.50;5.60;;;21.10;67.60;;;;;;5043313;28;20556;-73
2022/08/31 07:03:31;;;;;;;11.50;5.70;;;21.10;67.50;;;;;;5080003;28;21093;-73
2022/08/31 07:06:05;;;;;;;9.93;5.53;;;21.10;67.70;;;;;;5104851;28;20456;-73
2022/08/31 07:08:34;;;;;;;9.17;6.27;;;21.10;67.70;;;;;;5104600;27;20547;-73
2022/08/31 07:11:04;;;;;;;9.97;6.20;;;21.10;67.70;;;;;;5104932;28;20545;-73
2022/08/31 07:13:32;;;;;;;9.33;5.27;;;21.20;67.80;;;;;;5096282;28;21214;-73
2022/08/31 07:16:05;;;;;;;8.60;5.63;;;21.20;67.80;;;;;;5094906;28;20817;-73
2022/08/31 07:18:34;;;;;;;7.60;5.30;;;21.30;67.80;;;;;;5103807;27;20489;-73
2022/08/31 07:21:14;;;;;;;8.57;5.73;;;21.40;67.80;;;;;;5097371;28;20524;-73
2022/08/31 07:23:44;;;;;;;8.13;4.90;;;21.40;67.60;;;;;;5092416;28;20457;-73
2022/08/31 07:26:20;;;;;;;9.23;5.37;;;21.50;67.40;;;;;;5101711;27;20454;-73
2022/08/31 07:28:52;;;;;;;12.73;5.20;;;21.50;67.30;;;;;;5099278;28;20449;-74
2022/08/31 07:31:22;;;;;;;9.30;5.20;;;21.50;67.20;;;;;;5104480;27;21027;-74
2022/08/31 07:33:52;;;;;;;7.93;4.93;;;21.60;67.00;;;;;;5094748;28;20469;-73
2022/08/31 07:36:20;;;;;;;9.60;4.60;;;21.60;67.00;;;;;;5106801;27;20473;-73
2022/08/31 07:44:33;;;;;;;13.30;5.30;;;21.70;66.70;;;;;;5101889;28;20458;-73
2022/08/31 07:47:02;;;;;;;8.60;5.20;;;21.80;66.70;;;;;;5103735;28;20480;-72
2022/08/31 07:49:30;;;;;;;8.10;5.40;;;21.80;66.40;;;;;;5099644;28;20526;-73
2022/08/31 07:52:05;;;;;;;8.63;4.87;;;21.80;66.40;;;;;;5102591;28;20864;-72
2022/08/31 07:55:06;;;;;;;10.80;4.70;;;21.90;66.40;;;;;;5085881;28;20472;-74
2022/08/31 07:57:56;;;;;;;7.67;4.47;;;22.00;66.30;;;;;;5100759;28;20478;-73
2022/08/31 08:00:28;;;;;;;7.70;5.03;;;22.10;65.90;;;;;;5093986;28;20527;-74
2022/08/31 08:03:06;;;;;;;7.17;4.53;;;22.20;65.90;;;;;;5094138;28;20544;-73
2022/08/31 08:05:55;;;;;;;7.63;4.63;;;22.20;65.80;;;;;;5098622;28;20544;-72
2022/08/31 08:08:47;;;;;;;7.17;4.77;;;22.30;65.50;;;;;;5096863;27;20505;-72
2022/08/31 08:12:03;;;;;;;8.67;4.47;;;22.40;65.20;;;;;;5094857;27;20472;-73
2022/08/31 08:15:06;;;;;;;8.00;4.30;;;22.50;65.00;;;;;;5077866;28;20476;-72
2022/08/31 08:17:54;;;;;;;12.50;4.23;;;22.50;64.60;;;;;;5080426;28;20474;-73
2022/08/31 08:20:27;;;;;;;11.90;4.43;;;22.50;64.20;;;;;;5099695;28;20453;-72
2022/08/31 08:23:10;;;;;;;7.60;4.57;;;22.50;64.20;;;;;;5102046;28;20449;-74
2022/08/31 08:25:46;;;;;;;7.00;3.80;;;22.60;64.20;;;;;;5098457;28;20482;-74
2022/08/31 08:28:20;;;;;;;7.43;4.00;;;22.70;64.10;;;;;;5095361;28;20487;-74
2022/08/31 08:31:14;;;;;;;6.63;4.30;;;22.70;64.00;;;;;;5101752;28;20508;-73
2022/08/31 08:33:42;;;;;;;7.23;3.80;;;22.80;63.50;;;;;;5101434;28;20548;-72
2022/08/31 08:36:11;;;;;;;10.83;4.20;;;22.90;63.50;;;;;;5092930;28;20846;-73
2022/08/31 08:38:42;;;;;;;8.80;3.80;;;22.90;63.20;;;;;;5103517;28;20458;-73
2022/08/31 08:41:14;;;;;;;6.73;3.80;;;22.90;62.90;;;;;;5104667;27;20452;-73
2022/08/31 08:43:46;;;;;;;6.90;4.30;;;22.90;62.80;;;;;;5095784;28;20479;-73
2022/08/31 08:46:29;;;;;;;6.40;3.70;;;23.00;62.70;;;;;;5106676;27;20459;-73
2022/08/31 08:49:14;;;;;;;9.50;4.00;;;23.00;62.50;;;;;;5099247;27;20467;-72
2022/08/31 08:51:46;;;;;;;6.17;4.20;;;23.00;62.30;;;;;;5105392;27;20468;-74
2022/08/31 08:54:24;;;;;;;12.30;3.87;;;23.00;62.20;;;;;;5101408;27;20449;-73
2022/08/31 08:56:52;;;;;;;6.57;4.03;;;23.10;61.90;;;;;;5096841;28;21060;-72
2022/08/31 08:59:20;;;;;;;7.87;3.83;;;23.10;61.70;;;;;;5092739;28;20446;-72
2022/08/31 09:02:05;;;;;;;7.23;3.70;;;23.10;61.70;;;;;;5096813;28;20452;-72
2022/08/31 09:04:58;;;;;;;6.57;3.20;;;23.20;61.60;;;;;;5091535;28;20462;-74
2022/08/31 09:08:15;;;;;;;6.57;4.30;;;23.20;61.30;;;;;;5086745;28;20475;-72
2022/08/31 09:10:46;;;;;;;7.37;3.87;;;23.20;61.00;;;;;;5098979;28;20470;-74
2022/08/31 09:13:24;;;;;;;6.33;3.37;;;23.20;61.10;;;;;;5093049;28;20454;-74
2022/08/31 09:16:11;;;;;;;7.87;4.00;;;23.20;60.90;;;;;;5094937;28;20480;-73
2022/08/31 09:18:47;;;;;;;6.63;3.80;;;23.30;60.80;;;;;;5099976;28;20465;-73
2022/08/31 09:21:22;;;;;;;6.27;3.40;;;23.30;60.40;;;;;;5094302;28;20596;-74
2022/08/31 09:24:00;;;;;;;6.53;3.90;;;23.30;60.60;;;;;;5094837;28;20550;-74
2022/08/31 09:26:34;;;;;;;9.37;4.27;;;23.30;60.40;;;;;;5096646;28;20453;-73
2022/08/31 09:29:12;;;;;;;6.60;3.20;;;23.30;60.30;;;;;;5096387;28;20898;-73
2022/08/31 09:31:45;;;;;;;7.57;4.20;;;23.30;60.30;;;;;;5096015;28;20462;-73
2022/08/31 09:34:28;;;;;;;7.60;4.10;;;23.30;60.40;;;;;;5091998;28;20864;-74
2022/08/31 09:37:14;;;;;;;6.30;3.73;;;23.40;60.20;;;;;;5094051;28;20496;-73
2022/08/31 09:39:47;;;;;;;8.20;3.47;;;23.40;60.10;;;;;;5091984;28;20464;-73
2022/08/31 09:42:29;;;;;;;9.10;3.87;;;23.40;60.00;;;;;;5099545;28;20546;-74
2022/08/31 09:45:01;;;;;;;10.70;4.50;;;23.40;60.10;;;;;;5093713;28;20453;-73
2022/08/31 09:47:47;;;;;;;7.17;3.57;;;23.40;60.00;;;;;;5098478;28;20988;-74
2022/08/31 09:50:30;;;;;;;13.30;6.30;;;23.40;60.10;;;;;;5097422;28;20559;-74
2022/08/31 09:56:12;;;;;;;9.43;4.20;;;23.50;59.70;;;;;;5096468;28;20587;-74
2022/08/31 09:58:50;;;;;;;11.07;3.90;;;23.60;59.60;;;;;;5101414;28;20963;-74
2022/08/31 10:01:29;;;;;;;6.87;4.17;;;23.60;59.50;;;;;;5101626;28;20448;-73
2022/08/31 10:04:17;;;;;;;6.60;3.83;;;23.60;59.50;;;;;;5101316;28;20451;-74
2022/08/31 10:06:54;;;;;;;7.20;3.90;;;23.70;59.60;;;;;;5098497;28;20557;-73
2022/08/31 10:09:32;;;;;;;8.30;4.80;;;23.80;59.50;;;;;;5098185;28;20460;-74
2022/08/31 10:12:04;;;;;;;8.00;4.03;;;23.80;59.40;;;;;;5099903;28;20460;-74
2022/08/31 10:14:40;;;;;;;7.27;3.47;;;23.80;59.30;;;;;;5108749;27;20552;-74
2022/08/31 10:17:14;;;;;;;8.00;4.60;;;23.90;59.20;;;;;;5113244;27;20962;-75
2022/08/31 10:19:52;;;;;;;8.80;4.57;;;23.90;59.10;;;;;;5109621;27;20459;-74
2022/08/31 10:22:30;;;;;;;8.27;3.60;;;23.90;59.00;;;;;;5116018;27;20450;-74
2022/08/31 10:25:11;;;;;;;10.67;4.17;;;23.90;59.00;;;;;;5102703;28;20452;-74
2022/08/31 10:27:44;;;;;;;7.53;4.10;;;23.90;58.90;;;;;;5104051;28;20482;-74
2022/08/31 10:30:22;;;;;;;7.50;4.33;;;23.90;58.70;;;;;;5096963;28;20499;-74
2022/08/31 10:32:56;;;;;;;7.23;3.93;;;23.90;58.60;;;;;;5098847;28;20539;-74
2022/08/31 10:35:36;;;;;;;7.90;4.17;;;23.90;58.50;;;;;;5103377;28;21288;-74
2022/08/31 10:38:20;;;;;;;6.30;3.47;;;23.90;58.60;;;;;;5101239;28;20571;-74
2022/08/31 10:40:51;;;;;;;8.40;4.47;;;23.90;58.50;;;;;;5101422;28;20453;-73
2022/08/31 10:43:22;;;;;;;8.07;4.20;;;23.90;58.60;;;;;;5100615;28;20453;-74
2022/08/31 10:45:52;;;;;;;7.10;4.00;;;23.90;58.40;;;;;;5096194;28;20446;-75
2022/08/31 10:48:24;;;;;;;7.57;3.83;;;23.90;58.10;;;;;;5098668;28;20469;-74
2022/08/31 10:51:02;;;;;;;8.50;4.43;;;23.90;58.00;;;;;;5098522;28;20451;-74
2022/08/31 10:53:44;;;;;;;6.63;4.07;;;23.90;58.00;;;;;;5098280;28;20501;-74
2022/08/31 10:56:17;;;;;;;6.63;3.80;;;23.90;57.90;;;;;;5095339;28;20460;-74
2022/08/31 10:58:58;;;;;;;5.70;3.07;;;23.90;57.80;;;;;;5094773;28;20472;-74
2022/08/31 11:01:33;;;;;;;7.43;3.50;;;23.90;57.80;;;;;;5094638;28;20460;-75
2022/08/31 11:04:34;;;;;;;7.90;3.30;;;24.00;57.80;;;;;;5092920;28;20449;-74
2022/08/31 11:07:12;;;;;;;6.87;3.23;;;24.00;57.70;;;;;;5096361;28;20507;-74
2022/08/31 11:09:51;;;;;;;16.10;4.00;;;24.00;57.40;;;;;;5097598;28;20444;-74
2022/08/31 11:12:24;;;;;;;7.53;3.60;;;24.00;57.20;;;;;;5095774;28;20478;-74
2022/08/31 11:15:13;;;;;;;11.50;4.00;;;24.00;57.30;;;;;;5102726;28;20464;-75
2022/08/31 11:18:11;;;;;;;7.00;3.87;;;24.00;57.20;;;;;;5098959;28;20517;-75
2022/08/31 11:21:07;;;;;;;5.27;3.17;;;24.00;56.90;;;;;;5098995;28;20456;-74
2022/08/31 11:23:46;;;;;;;8.20;3.20;;;24.00;56.90;;;;;;5095332;28;20496;-73
2022/08/31 11:26:50;;;;;;;7.77;3.87;;;24.00;56.90;;;;;;5096182;28;20457;-73
2022/08/31 11:29:34;;;;;;;7.77;4.40;;;24.00;56.50;;;;;;5097930;28;20811;-73
2022/08/31 11:32:11;;;;;;;12.33;3.80;;;24.00;56.60;;;;;;5100902;28;20541;-75
2022/08/31 11:34:49;;;;;;;7.47;3.97;;;24.00;56.60;;;;;;5101489;28;20476;-72
2022/08/31 11:37:53;;;;;;;7.37;3.87;;;24.10;56.50;;;;;;5100543;28;20989;-75
2022/08/31 11:41:09;;;;;;;6.37;3.90;;;24.00;56.70;;;;;;5016438;28;20458;-73
2022/08/31 11:43:52;;;;;;;6.13;3.37;;;24.10;56.80;;;;;;5009700;28;20583;-75
2022/08/31 11:46:44;;;;;;;7.13;4.10;;;24.10;56.80;;;;;;5081351;28;20816;-73
2022/08/31 11:49:35;;;;;;;8.00;3.60;;;24.10;56.70;;;;;;5095997;28;20448;-75
2022/08/31 11:52:23;;;;;;;7.87;3.87;;;24.20;56.60;;;;;;5099836;27;20548;-74
2022/08/31 11:55:21;;;;;;;6.10;3.20;;;24.20;56.40;;;;;;5097493;28;20546;-75
2022/08/31 11:58:15;;;;;;;6.20;3.23;;;24.20;56.30;;;;;;5089816;28;20476;-75
2022/08/31 12:00:57;;;;;;;7.30;3.20;;;24.30;56.30;;;;;;5096161;28;20505;-75
2022/08/31 12:03:51;;;;;;;8.80;4.03;;;24.30;56.10;;;;;;5097423;28;20448;-73
2022/08/31 12:06:59;;;;;;;6.27;3.90;;;24.30;56.10;;;;;;5090668;28;20527;-72
2022/08/31 12:10:20;;;;;;;5.83;3.13;;;24.30;56.10;;;;;;5092303;28;20470;-74
2022/08/31 12:13:32;;;;;;;6.23;3.43;;;24.30;55.80;;;;;;5097705;28;20440;-74
2022/08/31 12:16:13;;;;;;;5.63;3.33;;;24.40;55.70;;;;;;5012298;28;20993;-75
2022/08/31 12:19:01;;;;;;;6.97;3.33;;;24.40;55.40;;;;;;5012655;28;20479;-75
2022/08/31 12:24:38;;;;;;;5.10;2.90;;;24.40;55.00;;;;;;5099978;28;21137;-74
2022/08/31 12:27:31;;;;;;;5.70;2.90;;;24.40;54.90;;;;;;5093379;28;20467;-75
2022/08/31 12:30:17;;;;;;;6.37;3.50;;;24.40;54.20;;;;;;5095292;28;20453;-75
2022/08/31 12:32:57;;;;;;;7.00;3.47;;;24.40;54.60;;;;;;5096547;28;20447;-75
2022/08/31 12:35:26;;;;;;;6.03;3.30;;;24.40;54.50;;;;;;5093263;28;20442;-75
2022/08/31 12:37:59;;;;;;;7.10;3.47;;;24.40;54.60;;;;;;5097081;28;21048;-74
2022/08/31 12:40:31;;;;;;;5.37;2.90;;;24.50;54.50;;;;;;5094589;28;20448;-75
2022/08/31 12:43:04;;;;;;;7.10;3.40;;;24.50;54.40;;;;;;5093317;28;20536;-75
2022/08/31 12:45:54;;;;;;;8.97;3.17;;;24.50;54.30;;;;;;5096801;28;20446;-74
2022/08/31 12:48:38;;;;;;;7.37;3.70;;;24.50;54.20;;;;;;5094304;28;21033;-74
2022/08/31 12:51:14;;;;;;;6.00;3.27;;;24.50;54.20;;;;;;5093703;28;20449;-74
2022/08/31 12:54:09;;;;;;;6.60;2.97;;;24.60;54.20;;;;;;5092133;28;20458;-74
2022/08/31 12:56:46;;;;;;;7.67;4.00;;;24.60;54.00;;;;;;5094864;28;21103;-74
2022/08/31 12:59:32;;;;;;;6.10;3.40;;;24.60;53.90;;;;;;5091440;28;20495;-73
2022/08/31 13:02:20;;;;;;;6.40;3.50;;;24.70;54.00;;;;;;5097705;28;20454;-74
2022/08/31 13:04:50;;;;;;;8.13;3.20;;;24.70;53.80;;;;;;5101034;28;20460;-73
2022/08/31 13:07:22;;;;;;;10.93;3.23;;;24.70;53.40;;;;;;5101944;28;20478;-74
2022/08/31 13:10:03;;;;;;;6.97;3.53;;;24.70;53.70;;;;;;5108937;28;20490;-73
2022/08/31 13:12:33;;;;;;;9.10;3.60;;;24.80;53.60;;;;;;5100599;28;20798;-74
2022/08/31 13:15:01;;;;;;;6.70;3.53;;;24.80;53.70;;;;;;5103363;28;20458;-73
2022/08/31 13:17:34;;;;;;;5.67;3.47;;;24.80;53.70;;;;;;5104232;28;20490;-76
2022/08/31 13:20:04;;;;;;;7.20;3.47;;;24.80;53.70;;;;;;5100121;28;20541;-77
2022/08/31 13:22:38;;;;;;;7.43;3.50;;;24.80;53.60;;;;;;5102050;28;20544;-77
2022/08/31 13:25:14;;;;;;;7.27;4.00;;;24.80;53.70;;;;;;5098400;28;20445;-77
2022/08/31 13:27:47;;;;;;;6.57;3.87;;;24.80;53.70;;;;;;5096415;28;20548;-77
2022/08/31 13:30:18;;;;;;;8.90;3.70;;;24.80;53.80;;;;;;5099933;28;21052;-77
2022/08/31 13:32:49;;;;;;;7.90;3.47;;;24.80;53.80;;;;;;5098883;28;20449;-77
2022/08/31 13:35:21;;;;;;;7.10;3.90;;;24.90;53.80;;;;;;5095869;28;20527;-77
2022/08/31 13:38:02;;;;;;;6.27;3.50;;;24.90;53.80;;;;;;5094136;28;20478;-77
2022/08/31 13:40:35;;;;;;;8.50;3.70;;;24.90;53.80;;;;;;5099491;28;20462;-77
2022/08/31 13:43:07;;;;;;;7.60;4.03;;;24.90;53.40;;;;;;5096871;28;20993;-77
2022/08/31 13:45:39;;;;;;;7.20;3.80;;;24.80;53.50;;;;;;5095988;28;20478;-77
2022/08/31 13:48:13;;;;;;;6.73;3.77;;;24.90;53.60;;;;;;5099869;28;20471;-77